sensor_id;sensor_type;location;lat;lon;timestamp;pressure;altitude;pressure_sealevel;temperature;humidity
75991;BME280;64673;52.276;10.560;2022-12-07T00:00:25;100602.53;;;1.64;95.63
75991;BME280;64673;52.276;10.560;2022-12-07T00:02:50;100603.97;;;1.60;95.39
75991;BME280;64673;52.276;10.560;2022-12-07T00:05:15;100605.41;;;1.63;95.92
75991;BME280;64673;52.276;10.560;2022-12-07T00:07:41;100593.94;;;1.69;94.92
75991;BME280;64673;52.276;10.560;2022-12-07T00:10:06;100590.06;;;1.65;95.70
75991;BME280;64673;52.276;10.560;2022-12-07T00:12:32;100586.56;;;1.71;95.24
75991;BME280;64673;52.276;10.560;2022-12-07T00:14:57;100588.84;;;1.67;96.10
75991;BME280;64673;52.276;10.560;2022-12-07T00:17:22;100583.91;;;1.71;95.68
75991;BME280;64673;52.276;10.560;2022-12-07T00:19:47;100577.16;;;1.75;95.80
75991;BME280;64673;52.276;10.560;2022-12-07T00:22:13;100587.78;;;1.75;95.02
75991;BME280;64673;52.276;10.560;2022-12-07T00:24:38;100580.00;;;1.80;94.83
75991;BME280;64673;52.276;10.560;2022-12-07T00:27:03;100572.44;;;1.77;95.41
75991;BME280;64673;52.276;10.560;2022-12-07T00:29:29;100564.63;;;1.82;95.16
75991;BME280;64673;52.276;10.560;2022-12-07T00:31:54;100578.31;;;1.86;94.99
75991;BME280;64673;52.276;10.560;2022-12-07T00:34:21;100572.03;;;1.80;95.31
75991;BME280;64673;52.276;10.560;2022-12-07T00:36:46;100567.28;;;1.89;95.21
75991;BME280;64673;52.276;10.560;2022-12-07T00:39:12;100571.31;;;1.91;95.08
75991;BME280;64673;52.276;10.560;2022-12-07T00:41:37;100566.19;;;1.96;94.23
75991;BME280;64673;52.276;10.560;2022-12-07T00:44:03;100557.44;;;1.89;94.79
75991;BME280;64673;52.276;10.560;2022-12-07T00:46:28;100559.50;;;1.87;95.32
75991;BME280;64673;52.276;10.560;2022-12-07T00:48:54;100562.31;;;1.92;95.15
75991;BME280;64673;52.276;10.560;2022-12-07T00:51:22;100555.56;;;1.96;95.63
75991;BME280;64673;52.276;10.560;2022-12-07T00:53:48;100555.75;;;2.01;94.92
75991;BME280;64673;52.276;10.560;2022-12-07T00:56:19;100556.16;;;1.98;95.96
75991;BME280;64673;52.276;10.560;2022-12-07T00:58:49;100550.84;;;1.98;95.34
75991;BME280;64673;52.276;10.560;2022-12-07T01:01:15;100552.22;;;2.07;94.96
75991;BME280;64673;52.276;10.560;2022-12-07T01:03:40;100547.50;;;2.09;95.52
75991;BME280;64673;52.276;10.560;2022-12-07T01:06:06;100547.06;;;2.12;95.44
75991;BME280;64673;52.276;10.560;2022-12-07T01:08:31;100546.69;;;2.09;95.25
75991;BME280;64673;52.276;10.560;2022-12-07T01:11:02;100545.88;;;2.08;95.28
75991;BME280;64673;52.276;10.560;2022-12-07T01:13:28;100544.41;;;2.12;95.20
75991;BME280;64673;52.276;10.560;2022-12-07T01:15:57;100541.16;;;2.10;95.43
75991;BME280;64673;52.276;10.560;2022-12-07T01:18:25;100537.69;;;2.10;95.93
75991;BME280;64673;52.276;10.560;2022-12-07T01:21:12;100529.91;;;2.08;95.66
75991;BME280;64673;52.276;10.560;2022-12-07T01:23:38;100540.28;;;2.16;95.94
75991;BME280;64673;52.276;10.560;2022-12-07T01:26:06;100527.41;;;2.13;95.94
75991;BME280;64673;52.276;10.560;2022-12-07T01:28:32;100536.00;;;2.15;96.14
75991;BME280;64673;52.276;10.560;2022-12-07T01:31:03;100533.56;;;2.14;95.80
75991;BME280;64673;52.276;10.560;2022-12-07T01:33:31;100525.75;;;2.19;95.79
75991;BME280;64673;52.276;10.560;2022-12-07T01:36:08;100521.88;;;2.15;95.77
75991;BME280;64673;52.276;10.560;2022-12-07T01:38:34;100512.06;;;2.15;95.81
75991;BME280;64673;52.276;10.560;2022-12-07T01:41:00;100513.06;;;2.21;95.53
75991;BME280;64673;52.276;10.560;2022-12-07T01:43:28;100511.03;;;2.16;95.69
75991;BME280;64673;52.276;10.560;2022-12-07T01:45:54;100508.97;;;2.18;95.82
75991;BME280;64673;52.276;10.560;2022-12-07T01:48:29;100505.91;;;2.22;96.27
75991;BME280;64673;52.276;10.560;2022-12-07T01:51:00;100509.25;;;2.10;96.63
75991;BME280;64673;52.276;10.560;2022-12-07T01:53:28;100504.91;;;2.16;97.13
75991;BME280;64673;52.276;10.560;2022-12-07T01:55:55;100506.13;;;2.13;96.41
75991;BME280;64673;52.276;10.560;2022-12-07T01:58:21;100502.91;;;2.11;97.76
75991;BME280;64673;52.276;10.560;2022-12-07T02:00:47;100504.13;;;2.09;97.52
75991;BME280;64673;52.276;10.560;2022-12-07T02:03:23;100504.75;;;2.04;98.10
75991;BME280;64673;52.276;10.560;2022-12-07T02:05:49;100497.56;;;2.11;97.74
75991;BME280;64673;52.276;10.560;2022-12-07T02:08:16;100487.97;;;2.10;97.28
75991;BME280;64673;52.276;10.560;2022-12-07T02:10:42;100489.41;;;2.06;98.33
75991;BME280;64673;52.276;10.560;2022-12-07T02:13:15;100490.78;;;2.15;97.80
75991;BME280;64673;52.276;10.560;2022-12-07T02:24:15;100488.44;;;2.26;97.29
75991;BME280;64673;52.276;10.560;2022-12-07T02:29:47;100482.09;;;2.27;96.31
75991;BME280;64673;52.276;10.560;2022-12-07T02:32:28;100476.97;;;2.25;96.86
75991;BME280;64673;52.276;10.560;2022-12-07T02:35:06;100482.97;;;2.20;97.28
75991;BME280;64673;52.276;10.560;2022-12-07T02:40:04;100476.16;;;2.25;97.57
75991;BME280;64673;52.276;10.560;2022-12-07T02:42:36;100467.16;;;2.26;97.12
75991;BME280;64673;52.276;10.560;2022-12-07T02:45:05;100466.13;;;2.27;97.37
75991;BME280;64673;52.276;10.560;2022-12-07T02:47:33;100463.47;;;2.27;96.28
75991;BME280;64673;52.276;10.560;2022-12-07T02:49:59;100453.44;;;2.29;96.60
75991;BME280;64673;52.276;10.560;2022-12-07T02:52:27;100456.47;;;2.32;97.20
75991;BME280;64673;52.276;10.560;2022-12-07T02:54:52;100453.16;;;2.37;96.84
75991;BME280;64673;52.276;10.560;2022-12-07T02:57:27;100458.47;;;2.37;97.49
75991;BME280;64673;52.276;10.560;2022-12-07T03:08:06;100460.00;;;2.51;97.14
75991;BME280;64673;52.276;10.560;2022-12-07T03:18:25;100451.72;;;2.59;97.35
75991;BME280;64673;52.276;10.560;2022-12-07T03:20:53;100448.41;;;2.64;96.25
75991;BME280;64673;52.276;10.560;2022-12-07T03:23:21;100445.97;;;2.62;96.85
75991;BME280;64673;52.276;10.560;2022-12-07T03:25:50;100449.34;;;2.69;96.68
75991;BME280;64673;52.276;10.560;2022-12-07T03:28:20;100439.31;;;2.71;96.30
75991;BME280;64673;52.276;10.560;2022-12-07T03:30:52;100440.03;;;2.78;96.81
75991;BME280;64673;52.276;10.560;2022-12-07T03:33:26;100443.72;;;2.77;96.00
75991;BME280;64673;52.276;10.560;2022-12-07T03:36:08;100439.59;;;2.81;96.18
75991;BME280;64673;52.276;10.560;2022-12-07T03:38:40;100443.69;;;2.84;95.76
75991;BME280;64673;52.276;10.560;2022-12-07T03:41:31;100438.94;;;2.86;95.94
75991;BME280;64673;52.276;10.560;2022-12-07T03:43:59;100436.28;;;2.86;96.35
75991;BME280;64673;52.276;10.560;2022-12-07T03:51:54;100425.63;;;2.86;96.63
75991;BME280;64673;52.276;10.560;2022-12-07T03:57:12;100429.38;;;2.78;95.77
75991;BME280;64673;52.276;10.560;2022-12-07T03:59:39;100436.94;;;2.81;95.65
75991;BME280;64673;52.276;10.560;2022-12-07T04:02:06;100430.59;;;2.82;95.69
75991;BME280;64673;52.276;10.560;2022-12-07T04:04:33;100432.56;;;2.87;94.83
75991;BME280;64673;52.276;10.560;2022-12-07T04:06:59;100437.06;;;2.86;95.83
75991;BME280;64673;52.276;10.560;2022-12-07T04:09:25;100440.34;;;2.88;95.86
75991;BME280;64673;52.276;10.560;2022-12-07T04:11:50;100440.72;;;2.92;94.67
75991;BME280;64673;52.276;10.560;2022-12-07T04:14:16;100446.84;;;2.92;95.57
75991;BME280;64673;52.276;10.560;2022-12-07T04:16:55;100441.91;;;2.96;94.18
75991;BME280;64673;52.276;10.560;2022-12-07T04:19:29;100434.94;;;2.95;95.29
75991;BME280;64673;52.276;10.560;2022-12-07T04:21:56;100435.78;;;2.96;94.31
75991;BME280;64673;52.276;10.560;2022-12-07T04:24:21;100435.31;;;2.99;94.38
75991;BME280;64673;52.276;10.560;2022-12-07T04:26:47;100434.94;;;2.95;94.80
75991;BME280;64673;52.276;10.560;2022-12-07T04:29:13;100436.19;;;2.92;94.60
75991;BME280;64673;52.276;10.560;2022-12-07T04:31:39;100425.97;;;2.89;94.91
75991;BME280;64673;52.276;10.560;2022-12-07T04:34:05;100429.69;;;2.88;94.34
75991;BME280;64673;52.276;10.560;2022-12-07T04:36:31;100428.81;;;2.94;94.40
75991;BME280;64673;52.276;10.560;2022-12-07T04:38:57;100416.53;;;2.93;94.36
75991;BME280;64673;52.276;10.560;2022-12-07T04:41:23;100426.59;;;2.91;95.47
75991;BME280;64673;52.276;10.560;2022-12-07T04:43:59;100422.88;;;2.92;94.46
75991;BME280;64673;52.276;10.560;2022-12-07T04:46:25;100428.22;;;2.92;94.73
75991;BME280;64673;52.276;10.560;2022-12-07T04:48:52;100426.38;;;2.93;94.10
75991;BME280;64673;52.276;10.560;2022-12-07T04:51:20;100415.94;;;2.91;94.67
75991;BME280;64673;52.276;10.560;2022-12-07T04:53:46;100422.44;;;2.96;94.30
75991;BME280;64673;52.276;10.560;2022-12-07T04:56:11;100417.13;;;2.96;93.44
75991;BME280;64673;52.276;10.560;2022-12-07T04:58:37;100419.19;;;2.93;94.52
75991;BME280;64673;52.276;10.560;2022-12-07T05:01:02;100424.50;;;2.93;94.06
75991;BME280;64673;52.276;10.560;2022-12-07T05:03:27;100413.44;;;2.97;94.01
75991;BME280;64673;52.276;10.560;2022-12-07T05:05:53;100418.97;;;2.95;94.24
75991;BME280;64673;52.276;10.560;2022-12-07T05:08:18;100429.25;;;2.91;94.25
75991;BME280;64673;52.276;10.560;2022-12-07T05:10:43;100423.09;;;2.91;94.75
75991;BME280;64673;52.276;10.560;2022-12-07T05:13:09;100428.06;;;2.87;94.12
75991;BME280;64673;52.276;10.560;2022-12-07T05:15:34;100432.94;;;2.90;93.61
75991;BME280;64673;52.276;10.560;2022-12-07T05:17:59;100422.72;;;2.87;92.90
75991;BME280;64673;52.276;10.560;2022-12-07T05:20:25;100425.97;;;2.89;91.93
75991;BME280;64673;52.276;10.560;2022-12-07T05:22:50;100424.50;;;2.93;91.80
75991;BME280;64673;52.276;10.560;2022-12-07T05:25:16;100428.66;;;2.89;91.65
75991;BME280;64673;52.276;10.560;2022-12-07T05:27:41;100427.03;;;2.88;92.75
75991;BME280;64673;52.276;10.560;2022-12-07T05:30:07;100427.69;;;2.84;92.44
75991;BME280;64673;52.276;10.560;2022-12-07T05:32:32;100429.38;;;2.78;93.95
75991;BME280;64673;52.276;10.560;2022-12-07T05:34:57;100439.00;;;2.79;93.53
75991;BME280;64673;52.276;10.560;2022-12-07T05:37:23;100438.06;;;2.74;93.81
75991;BME280;64673;52.276;10.560;2022-12-07T05:39:48;100437.03;;;2.75;94.82
75991;BME280;64673;52.276;10.560;2022-12-07T05:42:13;100434.19;;;2.70;94.07
75991;BME280;64673;52.276;10.560;2022-12-07T05:44:41;100425.59;;;2.68;94.53
75991;BME280;64673;52.276;10.560;2022-12-07T05:47:07;100426.84;;;2.65;94.45
75991;BME280;64673;52.276;10.560;2022-12-07T05:49:32;100423.63;;;2.63;94.26
75991;BME280;64673;52.276;10.560;2022-12-07T05:51:58;100423.63;;;2.63;94.68
75991;BME280;64673;52.276;10.560;2022-12-07T05:54:23;100421.53;;;2.65;94.52
75991;BME280;64673;52.276;10.560;2022-12-07T05:56:49;100421.78;;;2.64;94.30
75991;BME280;64673;52.276;10.560;2022-12-07T05:59:14;100423.84;;;2.62;94.13
75991;BME280;64673;52.276;10.560;2022-12-07T06:04:16;100431.16;;;2.66;94.29
75991;BME280;64673;52.276;10.560;2022-12-07T06:06:41;100422.13;;;2.67;94.35
75991;BME280;64673;52.276;10.560;2022-12-07T06:09:06;100422.94;;;2.68;94.10
75991;BME280;64673;52.276;10.560;2022-12-07T06:11:32;100422.94;;;2.68;93.87
75991;BME280;64673;52.276;10.560;2022-12-07T06:14:16;100423.41;;;2.65;94.51
75991;BME280;64673;52.276;10.560;2022-12-07T06:16:41;100419.03;;;2.70;93.78
75991;BME280;64673;52.276;10.560;2022-12-07T06:19:06;100419.84;;;2.71;95.19
75991;BME280;64673;52.276;10.560;2022-12-07T06:21:32;100418.44;;;2.68;94.78
75991;BME280;64673;52.276;10.560;2022-12-07T06:23:57;100429.38;;;2.60;94.75
75991;BME280;64673;52.276;10.560;2022-12-07T06:26:22;100430.19;;;2.42;94.02
75991;BME280;64673;52.276;10.560;2022-12-07T06:28:48;100438.06;;;2.31;93.51
75991;BME280;64673;52.276;10.560;2022-12-07T06:31:13;100432.47;;;2.14;95.17
75991;BME280;64673;52.276;10.560;2022-12-07T06:33:39;100437.41;;;2.10;94.89
75991;BME280;64673;52.276;10.560;2022-12-07T06:36:04;100437.25;;;2.05;95.74
75991;BME280;64673;52.276;10.560;2022-12-07T06:38:30;100441.81;;;1.98;94.06
75991;BME280;64673;52.276;10.560;2022-12-07T06:40:55;100442.06;;;1.90;95.30
75991;BME280;64673;52.276;10.560;2022-12-07T06:43:20;100445.03;;;1.75;95.58
75991;BME280;64673;52.276;10.560;2022-12-07T06:45:46;100450.34;;;1.75;95.82
75991;BME280;64673;52.276;10.560;2022-12-07T06:48:11;100432.72;;;1.81;96.08
75991;BME280;64673;52.276;10.560;2022-12-07T06:50:37;100440.09;;;1.79;96.42
75991;BME280;64673;52.276;10.560;2022-12-07T06:53:02;100442.50;;;1.87;96.35
75991;BME280;64673;52.276;10.560;2022-12-07T06:55:27;100444.72;;;1.90;96.21
75991;BME280;64673;52.276;10.560;2022-12-07T06:57:53;100445.31;;;1.92;96.40
75991;BME280;64673;52.276;10.560;2022-12-07T07:00:18;100443.66;;;1.98;96.65
75991;BME280;64673;52.276;10.560;2022-12-07T07:02:44;100449.78;;;1.98;97.55
75991;BME280;64673;52.276;10.560;2022-12-07T07:05:09;100441.97;;;2.03;97.19
75991;BME280;64673;52.276;10.560;2022-12-07T07:07:34;100436.22;;;2.06;97.38
75991;BME280;64673;52.276;10.560;2022-12-07T07:10:00;100435.41;;;2.06;97.48
75991;BME280;64673;52.276;10.560;2022-12-07T07:12:25;100431.53;;;2.02;97.59
75991;BME280;64673;52.276;10.560;2022-12-07T07:14:50;100436.22;;;2.06;97.46
75991;BME280;64673;52.276;10.560;2022-12-07T07:17:16;100440.28;;;2.09;97.82
75991;BME280;64673;52.276;10.560;2022-12-07T07:19:41;100441.09;;;2.09;97.80
75991;BME280;64673;52.276;10.560;2022-12-07T07:22:07;100443.09;;;2.14;98.09
75991;BME280;64673;52.276;10.560;2022-12-07T07:24:32;100448.38;;;2.20;96.98
75991;BME280;64673;52.276;10.560;2022-12-07T07:26:57;100448.81;;;2.17;97.26
75991;BME280;64673;52.276;10.560;2022-12-07T07:29:22;100448.81;;;2.17;96.62
75991;BME280;64673;52.276;10.560;2022-12-07T07:31:48;100447.38;;;2.15;96.36
75991;BME280;64673;52.276;10.560;2022-12-07T07:34:13;100450.44;;;2.18;97.08
75991;BME280;64673;52.276;10.560;2022-12-07T07:36:39;100451.25;;;2.19;96.98
75991;BME280;64673;52.276;10.560;2022-12-07T07:39:04;100457.75;;;2.23;97.29
75991;BME280;64673;52.276;10.560;2022-12-07T07:41:30;100452.06;;;2.19;97.42
75991;BME280;64673;52.276;10.560;2022-12-07T07:43:55;100456.38;;;2.20;97.72
75991;BME280;64673;52.276;10.560;2022-12-07T07:46:20;100460.19;;;2.25;96.95
75991;BME280;64673;52.276;10.560;2022-12-07T07:48:46;100464.50;;;2.26;97.30
75991;BME280;64673;52.276;10.560;2022-12-07T07:51:11;100458.81;;;2.22;97.12
75991;BME280;64673;52.276;10.560;2022-12-07T07:53:36;100472.91;;;2.22;97.07
75991;BME280;64673;52.276;10.560;2022-12-07T07:56:02;100460.19;;;2.25;96.95
75991;BME280;64673;52.276;10.560;2022-12-07T07:58:27;100469.22;;;2.24;97.62
75991;BME280;64673;52.276;10.560;2022-12-07T08:00:55;100465.09;;;2.28;97.61
75991;BME280;64673;52.276;10.560;2022-12-07T08:03:21;100467.16;;;2.26;97.84
75991;BME280;64673;52.276;10.560;2022-12-07T08:05:46;100473.50;;;2.25;97.24
75991;BME280;64673;52.276;10.560;2022-12-07T08:08:11;100468.78;;;2.27;96.67
75991;BME280;64673;52.276;10.560;2022-12-07T08:10:39;100480.63;;;2.31;97.55
75991;BME280;64673;52.276;10.560;2022-12-07T08:13:05;100471.66;;;2.25;96.34
75991;BME280;64673;52.276;10.560;2022-12-07T08:15:38;100472.91;;;2.22;96.37
75991;BME280;64673;52.276;10.560;2022-12-07T08:18:04;100480.47;;;2.26;96.40
75991;BME280;64673;52.276;10.560;2022-12-07T08:20:30;100475.34;;;2.24;96.57
75991;BME280;64673;52.276;10.560;2022-12-07T08:22:56;100459.38;;;2.24;96.89
75991;BME280;64673;52.276;10.560;2022-12-07T08:25:22;100468.38;;;2.30;96.52
75991;BME280;64673;52.276;10.560;2022-12-07T08:27:48;100465.69;;;2.30;95.75
75991;BME280;64673;52.276;10.560;2022-12-07T08:30:13;100468.72;;;2.33;96.12
75991;BME280;64673;52.276;10.560;2022-12-07T08:32:39;100467.34;;;2.31;96.16
75991;BME280;64673;52.276;10.560;2022-12-07T08:35:04;100461.41;;;2.29;95.92
75991;BME280;64673;52.276;10.560;2022-12-07T08:37:31;100466.31;;;2.32;95.66
75991;BME280;64673;52.276;10.560;2022-12-07T08:39:56;100469.53;;;2.34;95.30
75991;BME280;64673;52.276;10.560;2022-12-07T08:42:22;100464.22;;;2.34;95.36
75991;BME280;64673;52.276;10.560;2022-12-07T08:44:52;100468.50;;;2.35;94.49
75991;BME280;64673;52.276;10.560;2022-12-07T08:47:18;100465.41;;;2.38;95.37
75991;BME280;64673;52.276;10.560;2022-12-07T08:49:46;100463.38;;;2.40;95.68
75991;BME280;64673;52.276;10.560;2022-12-07T08:52:13;100472.16;;;2.40;94.13
75991;BME280;64673;52.276;10.560;2022-12-07T08:54:39;100477.63;;;2.45;95.35
75991;BME280;64673;52.276;10.560;2022-12-07T08:57:05;100474.00;;;2.40;95.08
75991;BME280;64673;52.276;10.560;2022-12-07T08:59:33;100483.25;;;2.37;94.75
75991;BME280;64673;52.276;10.560;2022-12-07T09:01:59;100478.50;;;2.39;94.53
75991;BME280;64673;52.276;10.560;2022-12-07T09:04:24;100478.31;;;2.41;94.93
75991;BME280;64673;52.276;10.560;2022-12-07T09:06:50;100474.75;;;2.47;95.67
75991;BME280;64673;52.276;10.560;2022-12-07T09:09:15;100479.72;;;2.43;94.46
75991;BME280;64673;52.276;10.560;2022-12-07T09:11:41;100478.44;;;2.46;94.57
75991;BME280;64673;52.276;10.560;2022-12-07T09:14:06;100475.63;;;2.41;94.83
75991;BME280;64673;52.276;10.560;2022-12-07T09:16:31;100478.66;;;2.44;94.80
75991;BME280;64673;52.276;10.560;2022-12-07T09:18:57;100484.38;;;2.48;94.13
75991;BME280;64673;52.276;10.560;2022-12-07T09:21:22;100481.94;;;2.46;95.07
75991;BME280;64673;52.276;10.560;2022-12-07T09:23:47;100485.41;;;2.47;94.22
75991;BME280;64673;52.276;10.560;2022-12-07T09:26:13;100481.72;;;2.48;94.80
75991;BME280;64673;52.276;10.560;2022-12-07T09:28:38;100478.44;;;2.46;94.21
75991;BME280;64673;52.276;10.560;2022-12-07T09:31:04;100477.63;;;2.45;94.89
75991;BME280;64673;52.276;10.560;2022-12-07T09:33:29;100470.03;;;2.49;95.04
75991;BME280;64673;52.276;10.560;2022-12-07T09:35:55;100473.50;;;2.49;95.15
75991;BME280;64673;52.276;10.560;2022-12-07T09:38:20;100471.66;;;2.50;93.97
75991;BME280;64673;52.276;10.560;2022-12-07T09:40:46;100468.94;;;2.56;94.61
75991;BME280;64673;52.276;10.560;2022-12-07T09:43:19;100477.13;;;2.55;94.45
75991;BME280;64673;52.276;10.560;2022-12-07T09:45:45;100468.13;;;2.56;94.53
75991;BME280;64673;52.276;10.560;2022-12-07T09:48:17;100464.00;;;2.60;94.00
75991;BME280;64673;52.276;10.560;2022-12-07T09:50:43;100472.13;;;2.65;94.90
75991;BME280;64673;52.276;10.560;2022-12-07T09:53:22;100468.06;;;2.63;94.52
75991;BME280;64673;52.276;10.560;2022-12-07T09:55:49;100473.00;;;2.59;93.87
75991;BME280;64673;52.276;10.560;2022-12-07T09:58:26;100482.47;;;2.55;94.38
75991;BME280;64673;52.276;10.560;2022-12-07T10:01:00;100470.22;;;2.54;94.33
75991;BME280;64673;52.276;10.560;2022-12-07T10:03:27;100474.44;;;2.62;94.25
75991;BME280;64673;52.276;10.560;2022-12-07T10:05:54;100470.28;;;2.66;94.25
75991;BME280;64673;52.276;10.560;2022-12-07T10:08:20;100467.69;;;2.59;92.89
75991;BME280;64673;52.276;10.560;2022-12-07T10:10:50;100467.69;;;2.59;92.46
75991;BME280;64673;52.276;10.560;2022-12-07T10:16:01;100465.75;;;2.66;92.59
75991;BME280;64673;52.276;10.560;2022-12-07T10:26:31;100461.22;;;2.73;92.38
75991;BME280;64673;52.276;10.560;2022-12-07T10:31:40;100459.72;;;2.77;93.09
75991;BME280;64673;52.276;10.560;2022-12-07T10:34:26;100461.00;;;2.75;92.56
75991;BME280;64673;52.276;10.560;2022-12-07T10:39:47;100457.06;;;2.77;91.94
75991;BME280;64673;52.276;10.560;2022-12-07T10:48:02;100451.75;;;2.96;92.26
75991;BME280;64673;52.276;10.560;2022-12-07T11:01:45;100451.16;;;2.93;90.89
75991;BME280;64673;52.276;10.560;2022-12-07T11:37:03;100441.38;;;3.06;88.94
75991;BME280;64673;52.276;10.560;2022-12-07T11:39:44;100435.16;;;3.12;89.07
75991;BME280;64673;52.276;10.560;2022-12-07T11:42:23;100417.38;;;3.24;89.01
75991;BME280;64673;52.276;10.560;2022-12-07T11:44:59;100425.06;;;3.32;89.63
75991;BME280;64673;52.276;10.560;2022-12-07T11:50:27;100418.63;;;3.51;87.93
75991;BME280;64673;52.276;10.560;2022-12-07T11:53:05;100420.00;;;3.42;88.84
75991;BME280;64673;52.276;10.560;2022-12-07T11:56:03;100408.63;;;3.35;88.12
75991;BME280;64673;52.276;10.560;2022-12-07T12:03:34;100398.66;;;3.42;87.82
75991;BME280;64673;52.276;10.560;2022-12-07T12:06:02;100404.00;;;3.42;87.56
75991;BME280;64673;52.276;10.560;2022-12-07T12:08:31;100400.63;;;3.35;86.57
75991;BME280;64673;52.276;10.560;2022-12-07T12:19:16;100387.47;;;3.22;88.42
75991;BME280;64673;52.276;10.560;2022-12-07T12:21:47;100387.91;;;3.19;88.27
75991;BME280;64673;52.276;10.560;2022-12-07T12:24:21;100389.09;;;3.23;88.62
75991;BME280;64673;52.276;10.560;2022-12-07T12:26:57;100387.97;;;3.30;88.49
75991;BME280;64673;52.276;10.560;2022-12-07T12:34:57;100391.03;;;3.16;88.98
75991;BME280;64673;52.276;10.560;2022-12-07T12:37:39;100385.94;;;3.14;87.70
75991;BME280;64673;52.276;10.560;2022-12-07T12:42:47;100375.28;;;3.14;88.51
75991;BME280;64673;52.276;10.560;2022-12-07T12:45:18;100374.03;;;3.17;87.38
75991;BME280;64673;52.276;10.560;2022-12-07T12:48:03;100380.38;;;3.16;87.90
75991;BME280;64673;52.276;10.560;2022-12-07T12:50:34;100367.59;;;3.06;87.22
75991;BME280;64673;52.276;10.560;2022-12-07T12:53:03;100378.38;;;3.11;87.81
75991;BME280;64673;52.276;10.560;2022-12-07T13:01:38;100368.97;;;3.09;88.20
75991;BME280;64673;52.276;10.560;2022-12-07T13:03:57;100367.19;;;3.21;87.09
75991;BME280;64673;52.276;10.560;2022-12-07T13:08:53;100367.28;;;3.14;86.10
75991;BME280;64673;52.276;10.560;2022-12-07T13:16:57;100360.69;;;3.17;86.43
75991;BME280;64673;52.276;10.560;2022-12-07T13:27:41;100363.09;;;3.07;87.89
75991;BME280;64673;52.276;10.560;2022-12-07T13:30:14;100370.72;;;3.03;87.41
75991;BME280;64673;52.276;10.560;2022-12-07T13:32:40;100358.25;;;2.97;89.06
75991;BME280;64673;52.276;10.560;2022-12-07T13:37:56;100360.91;;;2.85;88.47
75991;BME280;64673;52.276;10.560;2022-12-07T13:40:23;100358.81;;;2.87;89.15
75991;BME280;64673;52.276;10.560;2022-12-07T13:42:57;100362.81;;;2.97;89.52
75991;BME280;64673;52.276;10.560;2022-12-07T13:45:31;100366.50;;;2.96;89.09
75991;BME280;64673;52.276;10.560;2022-12-07T13:48:30;100357.31;;;2.91;88.96
75991;BME280;64673;52.276;10.560;2022-12-07T13:50:58;100349.50;;;2.97;88.85
75991;BME280;64673;52.276;10.560;2022-12-07T13:53:24;100350.97;;;2.92;88.34
75991;BME280;64673;52.276;10.560;2022-12-07T13:55:53;100348.16;;;2.87;88.28
75991;BME280;64673;52.276;10.560;2022-12-07T13:58:18;100356.38;;;2.86;88.90
75991;BME280;64673;52.276;10.560;2022-12-07T14:00:44;100358.81;;;2.87;89.13
75991;BME280;64673;52.276;10.560;2022-12-07T14:05:39;100359.63;;;2.88;89.47
75991;BME280;64673;52.276;10.560;2022-12-07T14:08:06;100354.66;;;2.91;89.79
75991;BME280;64673;52.276;10.560;2022-12-07T14:13:35;100356.44;;;2.79;89.54
75991;BME280;64673;52.276;10.560;2022-12-07T14:16:02;100349.50;;;2.78;90.20
75991;BME280;64673;52.276;10.560;2022-12-07T14:18:38;100354.38;;;2.81;90.58
75991;BME280;64673;52.276;10.560;2022-12-07T14:23:34;100354.75;;;2.85;90.83
75991;BME280;64673;52.276;10.560;2022-12-07T14:26:18;100357.16;;;2.86;90.67
75991;BME280;64673;52.276;10.560;2022-12-07T14:28:44;100350.25;;;2.85;89.89
75991;BME280;64673;52.276;10.560;2022-12-07T14:31:13;100348.16;;;2.87;90.61
75991;BME280;64673;52.276;10.560;2022-12-07T14:33:39;100348.16;;;2.87;90.63
75991;BME280;64673;52.276;10.560;2022-12-07T14:36:05;100353.47;;;2.87;91.13
75991;BME280;64673;52.276;10.560;2022-12-07T14:38:31;100354.66;;;2.91;90.68
75991;BME280;64673;52.276;10.560;2022-12-07T14:40:56;100352.00;;;2.91;89.53
75991;BME280;64673;52.276;10.560;2022-12-07T14:43:44;100341.78;;;2.88;90.37
75991;BME280;64673;52.276;10.560;2022-12-07T14:46:10;100342.16;;;2.92;89.10
75991;BME280;64673;52.276;10.560;2022-12-07T14:48:35;100344.00;;;2.91;89.42
75991;BME280;64673;52.276;10.560;2022-12-07T14:51:00;100348.16;;;2.87;89.31
75991;BME280;64673;52.276;10.560;2022-12-07T14:53:35;100352.59;;;2.93;89.18
75991;BME280;64673;52.276;10.560;2022-12-07T14:56:01;100347.16;;;3.00;88.56
75991;BME280;64673;52.276;10.560;2022-12-07T14:58:27;100345.31;;;3.01;88.66
75991;BME280;64673;52.276;10.560;2022-12-07T15:00:52;100348.00;;;3.01;88.31
75991;BME280;64673;52.276;10.560;2022-12-07T15:03:17;100354.94;;;3.02;88.49
75991;BME280;64673;52.276;10.560;2022-12-07T15:05:43;100353.69;;;3.04;88.19
75991;BME280;64673;52.276;10.560;2022-12-07T15:08:12;100354.84;;;3.08;87.78
75991;BME280;64673;52.276;10.560;2022-12-07T15:10:37;100355.91;;;3.07;88.26
75991;BME280;64673;52.276;10.560;2022-12-07T15:13:05;100358.91;;;3.11;88.44
75991;BME280;64673;52.276;10.560;2022-12-07T15:15:51;100338.84;;;2.97;89.28
75991;BME280;64673;52.276;10.560;2022-12-07T15:18:17;100355.66;;;3.09;88.73
75991;BME280;64673;52.276;10.560;2022-12-07T15:20:44;100351.97;;;3.10;88.61
75991;BME280;64673;52.276;10.560;2022-12-07T15:23:10;100342.22;;;3.04;88.26
75991;BME280;64673;52.276;10.560;2022-12-07T15:25:35;100341.50;;;2.97;89.52
75991;BME280;64673;52.276;10.560;2022-12-07T15:28:01;100345.09;;;3.02;88.85
75991;BME280;64673;52.276;10.560;2022-12-07T15:30:26;100348.44;;;2.98;88.72
75991;BME280;64673;52.276;10.560;2022-12-07T15:32:52;100344.72;;;2.99;88.45
75991;BME280;64673;52.276;10.560;2022-12-07T15:35:18;100337.34;;;3.01;88.73
75991;BME280;64673;52.276;10.560;2022-12-07T15:37:43;100338.97;;;3.02;88.11